createdAt,value
2022-11-08T00:00:07.212Z,518
2022-11-08T00:02:07.453Z,795
2022-11-08T00:03:07.370Z,530
2022-11-08T00:04:07.274Z,448
2022-11-08T00:05:07.213Z,462
2022-11-08T00:07:07.418Z,600
2022-11-08T00:08:07.239Z,603
2022-11-08T00:09:07.267Z,594
2022-11-08T00:10:07.286Z,413
2022-11-08T00:12:07.413Z,473
2022-11-08T00:13:07.280Z,553
2022-11-08T00:14:07.283Z,578
2022-11-08T00:15:07.272Z,461
2022-11-08T00:17:07.464Z,588
2022-11-08T00:18:07.286Z,447
2022-11-08T00:19:07.271Z,589
2022-11-08T00:20:07.299Z,496
2022-11-08T00:22:07.409Z,597
2022-11-08T00:23:07.271Z,546
2022-11-08T00:24:07.284Z,502
2022-11-08T00:25:07.219Z,588
2022-11-08T00:27:07.435Z,536
2022-11-08T00:28:07.273Z,692
2022-11-08T00:29:07.218Z,536
2022-11-08T00:30:07.278Z,710
2022-11-08T00:32:07.425Z,646
2022-11-08T00:33:07.280Z,652
2022-11-08T00:34:07.291Z,614
2022-11-08T00:35:07.281Z,496
2022-11-08T00:37:07.414Z,627
2022-11-08T00:38:07.287Z,482
2022-11-08T00:39:07.222Z,710
2022-11-08T00:40:07.274Z,497
2022-11-08T00:42:07.446Z,678
2022-11-08T00:43:07.281Z,783
2022-11-08T00:44:07.229Z,620
2022-11-08T00:45:07.235Z,763
2022-11-08T00:47:07.415Z,614
2022-11-08T00:48:07.261Z,772
2022-11-08T00:49:07.227Z,887
2022-11-08T00:50:07.290Z,806
2022-11-08T00:52:07.430Z,830
2022-11-08T00:53:07.233Z,970
2022-11-08T00:54:07.291Z,918
2022-11-08T00:55:07.243Z,909
2022-11-08T00:57:07.441Z,975
2022-11-08T00:58:07.295Z,800
2022-11-08T00:59:07.248Z,887
2022-11-08T01:00:07.234Z,870
2022-11-08T01:02:07.506Z,700
2022-11-08T01:03:07.307Z,699
2022-11-08T01:04:07.308Z,678
2022-11-08T01:05:07.296Z,887
2022-11-08T01:07:07.424Z,920
2022-11-08T01:08:07.324Z,717
2022-11-08T01:09:07.290Z,927
2022-11-08T01:10:07.239Z,927
2022-11-08T01:12:07.442Z,905
2022-11-08T01:13:07.327Z,975
2022-11-08T01:14:07.297Z,927
2022-11-08T01:15:07.287Z,874
2022-11-08T01:17:07.449Z,730
2022-11-08T01:18:07.303Z,1144
2022-11-08T01:19:07.297Z,895
2022-11-08T01:20:07.302Z,682
2022-11-08T01:22:07.456Z,679
2022-11-08T01:23:07.305Z,889
2022-11-08T01:24:07.246Z,834
2022-11-08T01:25:07.297Z,918
2022-11-08T01:27:07.447Z,846
2022-11-08T01:28:07.248Z,887
2022-11-08T01:29:07.301Z,1478
2022-11-08T01:30:07.305Z,997
2022-11-08T01:32:07.449Z,836
2022-11-08T01:33:07.333Z,1113
2022-11-08T01:34:07.309Z,920
2022-11-08T01:35:07.243Z,1307
2022-11-08T01:37:07.455Z,704
2022-11-08T01:38:07.285Z,1099
2022-11-08T01:39:07.282Z,1474
2022-11-08T01:40:07.241Z,889
2022-11-08T01:42:07.457Z,1081
2022-11-08T01:43:07.256Z,1302
2022-11-08T01:44:07.255Z,1083
2022-11-08T01:45:07.266Z,1083
2022-11-08T01:47:07.445Z,889
2022-11-08T01:48:07.310Z,964
2022-11-08T01:49:07.251Z,851
2022-11-08T01:50:07.277Z,1137
2022-11-08T01:52:07.434Z,1248
2022-11-08T01:53:07.309Z,1259
2022-11-08T01:54:07.255Z,1099
2022-11-08T01:55:07.316Z,972
2022-11-08T01:57:07.464Z,1044
2022-11-08T01:58:07.270Z,1029
2022-11-08T01:59:07.297Z,690
2022-11-08T02:00:07.280Z,872
2022-11-08T02:02:07.625Z,1367
2022-11-08T02:03:07.256Z,925
2022-11-08T02:04:07.259Z,1310
2022-11-08T02:05:07.266Z,1081
2022-11-08T02:07:07.456Z,1252
2022-11-08T02:08:07.311Z,997
2022-11-08T02:09:07.257Z,776
2022-11-08T02:10:07.321Z,778
2022-11-08T02:12:07.441Z,1019
2022-11-08T02:13:10.814Z,1001
2022-11-08T02:14:07.320Z,970
2022-11-08T02:15:07.328Z,832
2022-11-08T02:17:07.475Z,863
2022-11-08T02:18:07.349Z,1044
2022-11-08T02:19:07.320Z,726
2022-11-08T02:20:07.260Z,905
2022-11-08T02:22:07.430Z,1153
2022-11-08T02:23:07.304Z,1102
2022-11-08T02:24:07.323Z,806
2022-11-08T02:25:07.279Z,776
2022-11-08T02:27:07.475Z,1118
2022-11-08T02:28:07.333Z,830
2022-11-08T02:29:07.340Z,1107
2022-11-08T02:30:07.326Z,817
2022-11-08T02:32:07.527Z,1168
2022-11-08T02:33:07.269Z,1270
2022-11-08T02:34:07.282Z,900
2022-11-08T02:35:07.391Z,990
2022-11-08T02:37:07.474Z,1041
2022-11-08T02:38:07.277Z,945
2022-11-08T02:39:07.336Z,1195
2022-11-08T02:40:07.271Z,1122
2022-11-08T02:42:07.478Z,798
2022-11-08T02:43:07.333Z,778
2022-11-08T02:44:07.280Z,813
2022-11-08T02:45:07.376Z,933
2022-11-08T02:47:07.446Z,836
2022-11-08T02:48:07.338Z,1140
2022-11-08T02:49:07.279Z,940
2022-11-08T02:50:07.315Z,1220
2022-11-08T02:52:07.482Z,1122
2022-11-08T02:53:07.280Z,1071
2022-11-08T02:54:07.342Z,1014
2022-11-08T02:55:07.281Z,827
2022-11-08T02:57:07.470Z,1195
2022-11-08T02:58:07.369Z,1095
2022-11-08T02:59:07.340Z,1071
2022-11-08T03:00:07.282Z,1299
2022-11-08T03:02:07.584Z,918
2022-11-08T03:03:07.282Z,1702
2022-11-08T03:04:07.338Z,1673
2022-11-08T03:05:07.314Z,935
2022-11-08T03:07:07.499Z,1334
2022-11-08T03:08:07.344Z,844
2022-11-08T03:09:07.289Z,935
2022-11-08T03:10:07.301Z,832
2022-11-08T03:12:07.486Z,1156
2022-11-08T03:13:07.283Z,1302
2022-11-08T03:14:07.345Z,995
2022-11-08T03:15:07.294Z,1425
2022-11-08T03:17:07.537Z,885
2022-11-08T03:18:07.297Z,1462
2022-11-08T03:19:07.290Z,1050
2022-11-08T03:20:07.356Z,1495
2022-11-08T03:22:07.544Z,975
2022-11-08T03:23:07.345Z,1041
2022-11-08T03:24:07.376Z,708
2022-11-08T03:25:07.292Z,1019
2022-11-08T03:27:07.495Z,1153
2022-11-08T03:28:07.350Z,1095
2022-11-08T03:29:07.289Z,1380
2022-11-08T03:30:07.344Z,1544
2022-11-08T03:32:07.478Z,1324
2022-11-08T03:33:07.295Z,1062
2022-11-08T03:34:07.354Z,1299
2022-11-08T03:35:07.360Z,1012
2022-11-08T03:37:07.498Z,1053
2022-11-08T03:38:07.344Z,1855
2022-11-08T03:39:07.291Z,1334
2022-11-08T03:40:07.298Z,1453
2022-11-08T03:42:07.511Z,1558
2022-11-08T03:43:07.301Z,1041
2022-11-08T03:44:07.399Z,1341
2022-11-08T03:45:07.370Z,977
2022-11-08T03:47:07.490Z,1178
2022-11-08T03:48:07.388Z,1310
2022-11-08T03:49:07.305Z,1228
2022-11-08T03:50:07.353Z,1174
2022-11-08T03:52:07.478Z,1093
2022-11-08T03:53:07.295Z,1266
2022-11-08T03:54:07.363Z,733
2022-11-08T03:55:07.309Z,1122
2022-11-08T03:57:07.554Z,1669
2022-11-08T03:58:07.364Z,1608
2022-11-08T03:59:07.311Z,1759
2022-11-08T04:00:07.301Z,1053
2022-11-08T04:02:07.540Z,1302
2022-11-08T04:03:07.306Z,1228
2022-11-08T04:04:07.318Z,1007
2022-11-08T04:05:07.358Z,1252
2022-11-08T04:07:07.481Z,1140
2022-11-08T04:08:07.303Z,1181
2022-11-08T04:09:07.319Z,1491
2022-11-08T04:10:07.306Z,1147
2022-11-08T04:12:07.507Z,990
2022-11-08T04:13:07.392Z,925
2022-11-08T04:14:07.368Z,1465
2022-11-08T04:15:07.392Z,1215
2022-11-08T04:17:07.493Z,1445
2022-11-08T04:18:07.375Z,1245
2022-11-08T04:19:07.310Z,1313
2022-11-08T04:20:07.330Z,1345
2022-11-08T04:22:07.525Z,1683
2022-11-08T04:23:07.331Z,1014
2022-11-08T04:24:07.311Z,1068
2022-11-08T04:25:07.311Z,1436
2022-11-08T04:27:07.498Z,1140
2022-11-08T04:28:07.397Z,1252
2022-11-08T04:29:07.312Z,1252
2022-11-08T04:30:07.371Z,1017
2022-11-08T04:32:07.502Z,1207
2022-11-08T04:33:07.311Z,1122
2022-11-08T04:34:07.319Z,895
2022-11-08T04:35:07.381Z,1035
2022-11-08T04:37:07.533Z,1432
2022-11-08T04:38:07.317Z,1295
2022-11-08T04:39:07.324Z,1041
2022-11-08T04:40:07.315Z,1397
2022-11-08T04:42:07.522Z,1408
2022-11-08T04:43:07.374Z,927
2022-11-08T04:44:07.314Z,927
2022-11-08T04:45:07.319Z,1009
2022-11-08T04:47:07.498Z,1281
2022-11-08T04:48:07.373Z,1093
2022-11-08T04:49:07.404Z,935
2022-11-08T04:50:07.380Z,1341
2022-11-08T04:52:07.537Z,1156
2022-11-08T04:53:07.371Z,1122
2022-11-08T04:54:07.322Z,1574
2022-11-08T04:55:07.339Z,964
2022-11-08T04:57:07.512Z,1159
2022-11-08T04:58:07.325Z,1478
2022-11-08T04:59:11.675Z,1429
2022-11-08T05:00:07.319Z,1259
2022-11-08T05:02:07.567Z,1171
2022-11-08T05:03:07.389Z,1252
2022-11-08T05:04:07.329Z,1118
2022-11-08T05:05:07.404Z,1168
2022-11-08T05:07:07.517Z,1050
2022-11-08T05:08:07.391Z,1491
2022-11-08T05:09:07.404Z,972
2022-11-08T05:10:07.389Z,1341
2022-11-08T05:12:07.539Z,1245
2022-11-08T05:13:07.369Z,1238
2022-11-08T05:14:07.388Z,1168
2022-11-08T05:15:07.335Z,1458
2022-11-08T05:17:07.521Z,1156
2022-11-08T05:18:07.349Z,885
2022-11-08T05:19:12.038Z,1077
2022-11-08T05:20:07.328Z,1552
2022-11-08T05:22:07.565Z,1462
2022-11-08T05:23:07.396Z,1299
2022-11-08T05:24:07.330Z,1201
2022-11-08T05:25:07.389Z,959
2022-11-08T05:27:07.537Z,1062
2022-11-08T05:28:07.430Z,1499
2022-11-08T05:29:07.337Z,1630
2022-11-08T05:30:07.333Z,1503
2022-11-08T05:32:07.537Z,1044
2022-11-08T05:33:07.331Z,1330
2022-11-08T05:34:07.345Z,1215
2022-11-08T05:35:07.330Z,1425
2022-11-08T05:37:07.525Z,961
2022-11-08T05:38:07.402Z,1156
2022-11-08T05:39:07.352Z,1299
2022-11-08T05:40:07.338Z,1503
2022-11-08T05:42:07.552Z,1429
2022-11-08T05:43:07.398Z,1552
2022-11-08T05:44:07.346Z,1212
2022-11-08T05:45:09.314Z,1465
2022-11-08T05:47:07.560Z,1603
2022-11-08T05:48:07.405Z,1259
2022-11-08T05:49:07.404Z,1548
2022-11-08T05:50:07.410Z,1416
2022-11-08T05:52:07.535Z,1538
2022-11-08T05:53:07.404Z,1552
2022-11-08T05:54:07.406Z,1184
2022-11-08T05:55:07.348Z,1110
2022-11-08T05:57:07.599Z,1416
2022-11-08T05:58:07.405Z,1220
2022-11-08T05:59:07.421Z,1669
2022-11-08T06:00:07.392Z,1890
2022-11-08T06:02:07.639Z,1242
2022-11-08T06:03:07.462Z,1060
2022-11-08T06:04:07.436Z,1270
2022-11-08T06:05:07.441Z,1270
2022-11-08T06:07:07.623Z,1643
2022-11-08T06:08:07.358Z,1204
2022-11-08T06:09:07.348Z,1144
2022-11-08T06:10:07.355Z,930
2022-11-08T06:12:07.560Z,1093
2022-11-08T06:13:07.442Z,830
2022-11-08T06:14:07.413Z,1105
2022-11-08T06:15:07.445Z,1014
2022-11-08T06:17:07.550Z,1032
2022-11-08T06:18:07.413Z,787
2022-11-08T06:19:07.453Z,1191
2022-11-08T06:20:07.352Z,1191
2022-11-08T06:22:07.607Z,1181
2022-11-08T06:23:07.352Z,785
2022-11-08T06:24:07.440Z,1125
2022-11-08T06:25:07.424Z,1131
2022-11-08T06:27:07.572Z,1110
2022-11-08T06:28:07.371Z,1029
2022-11-08T06:29:07.424Z,1041
2022-11-08T06:30:07.378Z,851
2022-11-08T06:32:07.560Z,832
2022-11-08T06:33:07.414Z,1071
2022-11-08T06:34:07.431Z,825
2022-11-08T06:35:07.357Z,1065
2022-11-08T06:37:07.577Z,907
2022-11-08T06:38:09.404Z,1131
2022-11-08T06:39:07.421Z,857
2022-11-08T06:40:07.429Z,865
2022-11-08T06:42:07.572Z,907
2022-11-08T06:43:07.385Z,757
2022-11-08T06:44:07.444Z,1056
2022-11-08T06:45:07.430Z,863
2022-11-08T06:47:07.547Z,1137
2022-11-08T06:48:07.439Z,1009
2022-11-08T06:49:07.432Z,1009
2022-11-08T06:50:07.373Z,791
2022-11-08T06:52:07.556Z,1038
2022-11-08T06:53:07.455Z,1038
2022-11-08T06:54:08.685Z,964
2022-11-08T06:55:07.448Z,808
2022-11-08T06:57:07.558Z,1110
2022-11-08T06:58:07.431Z,714
2022-11-08T06:59:07.441Z,933
2022-11-08T07:00:07.382Z,956
2022-11-08T07:02:07.718Z,742
2022-11-08T07:03:07.477Z,927
2022-11-08T07:04:07.458Z,972
2022-11-08T07:05:07.445Z,735
2022-11-08T07:07:07.575Z,992
2022-11-08T07:08:07.368Z,900
2022-11-08T07:09:07.386Z,699
2022-11-08T07:10:07.484Z,913
2022-11-08T07:12:07.587Z,717
2022-11-08T07:13:07.465Z,742
2022-11-08T07:14:07.389Z,1001
2022-11-08T07:15:07.466Z,959
2022-11-08T07:17:07.582Z,959
2022-11-08T07:18:07.453Z,1001
2022-11-08T07:19:07.401Z,749
2022-11-08T07:20:07.383Z,907
2022-11-08T07:22:07.556Z,887
2022-11-08T07:23:07.384Z,780
2022-11-08T07:24:07.392Z,652
2022-11-08T07:25:07.463Z,918
2022-11-08T07:27:07.571Z,697
2022-11-08T07:28:07.392Z,935
2022-11-08T07:29:07.692Z,702
2022-11-08T07:30:07.383Z,728
2022-11-08T07:32:07.588Z,853
2022-11-08T07:33:07.382Z,631
2022-11-08T07:34:07.388Z,815
2022-11-08T07:35:07.442Z,834
2022-11-08T07:37:07.579Z,815
2022-11-08T07:38:07.382Z,686
2022-11-08T07:39:07.390Z,555
2022-11-08T07:40:07.393Z,589
2022-11-08T07:42:07.580Z,666
2022-11-08T07:43:12.429Z,697
2022-11-08T07:44:07.410Z,897
2022-11-08T07:45:07.448Z,887
2022-11-08T07:47:07.596Z,665
2022-11-08T07:48:11.340Z,808
2022-11-08T07:49:07.452Z,607
2022-11-08T07:50:07.450Z,768
2022-11-08T07:52:07.608Z,793
2022-11-08T07:53:07.401Z,804
2022-11-08T07:54:07.401Z,715
2022-11-08T07:55:07.454Z,675
2022-11-08T07:57:07.598Z,531
2022-11-08T07:58:07.456Z,584
2022-11-08T07:59:07.459Z,748
2022-11-08T08:00:07.943Z,546
2022-11-08T08:02:07.665Z,578
2022-11-08T08:03:07.458Z,555
2022-11-08T08:04:07.401Z,730
2022-11-08T08:05:07.461Z,551
2022-11-08T08:07:07.610Z,539
2022-11-08T08:08:07.424Z,553
2022-11-08T08:09:07.412Z,570
2022-11-08T08:10:07.461Z,565
2022-11-08T08:12:07.651Z,746
2022-11-08T08:13:07.471Z,737
2022-11-08T08:14:07.423Z,575
2022-11-08T08:15:07.410Z,737
2022-11-08T08:17:07.622Z,564
2022-11-08T08:18:07.404Z,556
2022-11-08T08:19:07.466Z,726
2022-11-08T08:20:07.475Z,732
2022-11-08T08:22:07.617Z,553
2022-11-08T08:23:07.405Z,665
2022-11-08T08:24:07.416Z,683
2022-11-08T08:25:07.465Z,656
2022-11-08T08:27:07.659Z,496
2022-11-08T08:28:07.412Z,646
2022-11-08T08:29:07.428Z,592
2022-11-08T08:30:07.417Z,540
2022-11-08T08:32:07.590Z,699
2022-11-08T08:33:28.206Z,674
2022-11-08T08:34:07.422Z,533
2022-11-08T08:35:07.466Z,671
2022-11-08T08:37:07.619Z,699
2022-11-08T08:38:07.467Z,694
2022-11-08T08:39:07.473Z,529
2022-11-08T08:40:07.471Z,545
2022-11-08T08:42:07.636Z,546
2022-11-08T08:43:07.473Z,524
2022-11-08T08:44:07.416Z,487
2022-11-08T08:45:10.727Z,475
2022-11-08T08:47:07.626Z,679
2022-11-08T08:48:07.479Z,618
2022-11-08T08:49:07.416Z,660
2022-11-08T08:50:07.477Z,626
2022-11-08T08:52:07.629Z,605
2022-11-08T08:53:07.437Z,618
2022-11-08T08:54:07.414Z,834
2022-11-08T08:55:07.488Z,827
2022-11-08T08:57:07.670Z,815
2022-11-08T08:58:07.425Z,804
2022-11-08T09:02:07.616Z,778
2022-11-08T09:03:07.447Z,776
2022-11-08T09:04:07.425Z,520
2022-11-08T09:05:07.438Z,555
2022-11-08T09:07:07.665Z,553
2022-11-08T09:08:07.446Z,714
2022-11-08T09:09:07.487Z,710
2022-11-08T09:10:07.497Z,633
2022-11-08T09:12:10.341Z,527
2022-11-08T09:13:07.429Z,702
2022-11-08T09:14:07.442Z,526
2022-11-08T09:15:07.484Z,692
2022-11-08T09:17:07.635Z,580
2022-11-08T09:18:07.490Z,915
2022-11-08T09:19:07.490Z,940
2022-11-08T09:20:07.498Z,650
2022-11-08T09:22:07.677Z,733
2022-11-08T09:23:07.488Z,806
2022-11-08T09:24:07.428Z,714
2022-11-08T09:25:07.500Z,808
2022-11-08T09:27:07.609Z,844
2022-11-08T09:28:07.490Z,688
2022-11-08T09:29:07.500Z,675
2022-11-08T09:30:07.491Z,754
2022-11-08T09:32:07.678Z,800
2022-11-08T09:33:07.538Z,623
2022-11-08T09:34:07.551Z,530
2022-11-08T09:35:07.663Z,714
2022-11-08T09:37:07.648Z,500
2022-11-08T09:38:07.465Z,603
2022-11-08T09:39:07.458Z,827
2022-11-08T09:40:07.559Z,640
2022-11-08T09:42:07.640Z,682
2022-11-08T09:43:07.494Z,740
2022-11-08T09:44:07.497Z,602
2022-11-08T09:45:07.454Z,548
2022-11-08T09:47:07.655Z,566
2022-11-08T09:48:07.490Z,553
2022-11-08T09:49:07.448Z,744
2022-11-08T09:50:07.441Z,524
2022-11-08T09:52:07.619Z,615
2022-11-08T09:53:07.515Z,798
2022-11-08T09:54:07.512Z,791
2022-11-08T09:55:07.507Z,675
2022-11-08T09:57:07.648Z,425
2022-11-08T09:58:07.455Z,728
2022-11-08T09:59:07.514Z,570
2022-11-08T10:00:07.467Z,690
2022-11-08T10:02:07.692Z,749
2022-11-08T10:03:07.525Z,671
2022-11-08T10:04:07.511Z,717
2022-11-08T10:05:07.459Z,844
2022-11-08T10:07:07.690Z,772
2022-11-08T10:08:07.508Z,459
2022-11-08T10:09:07.476Z,480
2022-11-08T10:10:07.450Z,638
2022-11-08T10:12:07.649Z,460
2022-11-08T10:13:07.454Z,531
2022-11-08T10:14:07.466Z,400
2022-11-08T10:15:07.477Z,759
2022-11-08T10:17:07.663Z,435
2022-11-08T10:18:07.514Z,589
2022-11-08T10:19:07.454Z,744
2022-11-08T10:20:07.558Z,545
2022-11-08T10:22:07.672Z,754
2022-11-08T10:23:07.460Z,748
2022-11-08T10:24:07.505Z,612
2022-11-08T10:25:07.463Z,838
2022-11-08T10:27:07.668Z,533
2022-11-08T10:28:07.466Z,752
2022-11-08T10:29:07.476Z,863
2022-11-08T10:30:07.485Z,708
2022-11-08T10:32:07.647Z,552
2022-11-08T10:33:07.467Z,778
2022-11-08T10:34:07.498Z,653
2022-11-08T10:35:07.466Z,748
2022-11-08T10:37:07.667Z,477
2022-11-08T10:38:07.477Z,643
2022-11-08T10:39:07.480Z,933
2022-11-08T10:40:07.462Z,787
2022-11-08T10:42:07.685Z,795
2022-11-08T10:43:09.445Z,592
2022-11-08T10:44:07.487Z,623
2022-11-08T10:45:07.469Z,470
2022-11-08T10:47:07.684Z,732
2022-11-08T10:48:07.534Z,694
2022-11-08T10:49:07.567Z,650
2022-11-08T10:50:07.529Z,1035
2022-11-08T10:52:07.673Z,744
2022-11-08T10:53:07.533Z,645
2022-11-08T10:54:07.493Z,545
2022-11-08T10:55:07.542Z,717
2022-11-08T10:57:07.733Z,596
2022-11-08T10:58:07.561Z,754
2022-11-08T10:59:07.477Z,702
2022-11-08T11:00:07.485Z,735
2022-11-08T11:02:07.776Z,596
2022-11-08T11:03:07.536Z,810
2022-11-08T11:04:07.479Z,819
2022-11-08T11:05:07.496Z,787
2022-11-08T11:07:07.748Z,574
2022-11-08T11:08:07.542Z,618
2022-11-08T11:09:07.546Z,534
2022-11-08T11:10:07.540Z,746
2022-11-08T11:12:07.697Z,596
2022-11-08T11:13:07.504Z,539
2022-11-08T11:14:07.487Z,567
2022-11-08T11:15:07.566Z,448
2022-11-08T11:17:07.707Z,715
2022-11-08T11:18:07.518Z,400
2022-11-08T11:19:07.503Z,400
2022-11-08T11:20:07.576Z,400
2022-11-08T11:22:07.694Z,400
2022-11-08T11:23:07.492Z,506
2022-11-08T11:24:07.504Z,460
2022-11-08T11:25:07.566Z,400
2022-11-08T11:27:07.676Z,553
2022-11-08T11:28:07.492Z,518
2022-11-08T11:29:07.496Z,400
2022-11-08T11:30:11.595Z,400
2022-11-08T11:32:07.694Z,400
2022-11-08T11:33:07.519Z,400
2022-11-08T11:34:07.501Z,400
2022-11-08T11:35:07.516Z,400
2022-11-08T11:37:07.712Z,426
2022-11-08T11:38:07.563Z,435
2022-11-08T11:39:07.564Z,460
2022-11-08T11:40:07.522Z,441
2022-11-08T11:42:24.394Z,481
2022-11-08T11:43:07.502Z,447
2022-11-08T11:44:07.514Z,462
2022-11-08T11:45:07.525Z,400
2022-11-08T11:47:07.691Z,408
2022-11-08T11:48:07.557Z,439
2022-11-08T11:49:07.526Z,435
2022-11-08T11:50:07.562Z,435
2022-11-08T11:52:07.702Z,439
2022-11-08T11:53:07.505Z,515
2022-11-08T11:54:07.506Z,515
2022-11-08T11:55:07.524Z,515
2022-11-08T11:57:07.702Z,515
2022-11-08T11:58:07.566Z,495
2022-11-08T11:59:07.566Z,560
2022-11-08T12:00:07.517Z,534
2022-11-08T12:02:07.824Z,495
2022-11-08T12:03:07.525Z,531
2022-11-08T12:04:07.513Z,531
2022-11-08T12:05:07.577Z,531
2022-11-08T12:07:07.736Z,569
2022-11-08T12:08:07.571Z,523
2022-11-08T12:09:07.514Z,523
2022-11-08T12:10:07.527Z,523
2022-11-08T12:12:07.713Z,523
2022-11-08T12:13:07.517Z,531
2022-11-08T12:14:07.538Z,531
2022-11-08T12:15:07.541Z,531
2022-11-08T12:17:07.731Z,531
2022-11-08T12:18:07.579Z,540
2022-11-08T12:19:07.585Z,540
2022-11-08T12:20:07.524Z,540
2022-11-08T12:22:07.768Z,540
2022-11-08T12:23:07.579Z,564
2022-11-08T12:24:07.576Z,514
2022-11-08T12:25:07.531Z,514
2022-11-08T12:27:07.699Z,514
2022-11-08T12:28:07.523Z,556
2022-11-08T12:29:07.519Z,556
2022-11-08T12:30:07.524Z,556
2022-11-08T12:32:07.734Z,556
2022-11-08T12:33:07.584Z,531
2022-11-08T12:34:07.591Z,514
2022-11-08T12:35:07.616Z,514
2022-11-08T12:37:07.728Z,514
2022-11-08T12:38:07.531Z,454
2022-11-08T12:39:07.550Z,445
2022-11-08T12:40:07.527Z,445
2022-11-08T12:42:07.724Z,543
2022-11-08T12:43:07.593Z,441
2022-11-08T12:44:07.612Z,460
2022-11-08T12:45:07.550Z,400
2022-11-08T12:47:07.720Z,401
2022-11-08T12:48:07.599Z,477
2022-11-08T12:49:07.535Z,527
2022-11-08T12:50:07.553Z,581
2022-11-08T12:52:07.705Z,551
2022-11-08T12:53:07.542Z,646
2022-11-08T12:54:07.541Z,491
2022-11-08T12:55:07.597Z,566
2022-11-08T12:57:07.742Z,407
2022-11-08T12:58:07.561Z,407
2022-11-08T12:59:07.603Z,478
2022-11-08T13:00:07.606Z,442
2022-11-08T13:02:07.770Z,407
2022-11-08T13:03:07.602Z,564
2022-11-08T13:04:07.610Z,537
2022-11-08T13:05:07.598Z,422
2022-11-08T13:07:07.844Z,401
2022-11-08T13:08:07.604Z,527
2022-11-08T13:09:07.539Z,603
2022-11-08T13:10:11.187Z,591
2022-11-08T13:12:07.749Z,553
2022-11-08T13:13:07.548Z,543
2022-11-08T13:14:07.553Z,650
2022-11-08T13:15:07.561Z,537
2022-11-08T13:17:07.748Z,726
2022-11-08T13:18:07.586Z,536
2022-11-08T13:19:07.622Z,596
2022-11-08T13:20:07.605Z,503
2022-11-08T13:22:07.730Z,600
2022-11-08T13:23:07.556Z,638
2022-11-08T13:24:30.684Z,697
2022-11-08T13:25:07.641Z,515
2022-11-08T13:27:07.745Z,545
2022-11-08T13:28:07.555Z,515
2022-11-08T13:29:07.562Z,515
2022-11-08T13:30:07.562Z,515
2022-11-08T13:32:07.763Z,543
2022-11-08T13:33:07.567Z,533
2022-11-08T13:34:07.614Z,438
2022-11-08T13:35:07.629Z,438
2022-11-08T13:37:07.759Z,438
2022-11-08T13:38:07.572Z,400
2022-11-08T13:39:07.573Z,400
2022-11-08T13:40:07.563Z,400
2022-11-08T13:42:07.779Z,450
2022-11-08T13:43:07.647Z,560
2022-11-08T13:44:07.627Z,602
2022-11-08T13:45:07.633Z,540
2022-11-08T13:47:07.785Z,452
2022-11-08T13:48:07.616Z,523
2022-11-08T13:49:07.572Z,671
2022-11-08T13:50:07.626Z,569
2022-11-08T13:52:07.774Z,551
2022-11-08T13:53:07.676Z,552
2022-11-08T13:54:07.629Z,515
2022-11-08T13:55:07.631Z,400
2022-11-08T13:57:07.779Z,624
2022-11-08T13:58:07.630Z,634
2022-11-08T13:59:07.637Z,806
2022-11-08T14:00:07.691Z,808
2022-11-08T14:02:07.773Z,496
2022-11-08T14:03:07.659Z,694
2022-11-08T14:04:07.639Z,645
2022-11-08T14:05:07.591Z,637
2022-11-08T14:07:07.887Z,699
2022-11-08T14:08:07.637Z,578
2022-11-08T14:09:07.576Z,640
2022-11-08T14:10:07.643Z,702
2022-11-08T14:12:07.784Z,578
2022-11-08T14:13:07.665Z,646
2022-11-08T14:14:07.580Z,646
2022-11-08T14:15:07.590Z,646
2022-11-08T14:17:07.838Z,646
2022-11-08T14:18:07.649Z,645
2022-11-08T14:19:07.639Z,645
2022-11-08T14:20:07.635Z,645
2022-11-08T14:22:07.846Z,645
2022-11-08T14:23:07.666Z,704
2022-11-08T14:24:07.646Z,704
2022-11-08T14:25:07.597Z,704
2022-11-08T14:27:07.756Z,704
2022-11-08T14:28:07.591Z,798
2022-11-08T14:29:07.581Z,798
2022-11-08T14:30:07.680Z,798
2022-11-08T14:32:07.845Z,798
2022-11-08T14:33:07.678Z,891
2022-11-08T14:34:07.588Z,891
2022-11-08T14:35:07.599Z,891
2022-11-08T14:37:07.786Z,891
2022-11-08T14:38:07.591Z,891
2022-11-08T14:39:07.598Z,891
2022-11-08T14:40:07.592Z,891
2022-11-08T14:42:07.799Z,891
2022-11-08T14:43:07.648Z,913
2022-11-08T14:44:07.681Z,913
2022-11-08T14:45:07.593Z,913
2022-11-08T14:47:07.795Z,913
2022-11-08T14:48:07.595Z,987
2022-11-08T14:49:07.648Z,987
2022-11-08T14:50:07.595Z,987
2022-11-08T14:52:08.135Z,987
2022-11-08T14:53:07.589Z,1053
2022-11-08T14:54:07.603Z,1053
2022-11-08T14:55:07.657Z,1053
2022-11-08T14:57:07.790Z,1053
2022-11-08T14:58:07.617Z,1122
2022-11-08T14:59:07.714Z,1122
2022-11-08T15:00:07.653Z,1122
2022-11-08T15:02:07.812Z,1122
2022-11-08T15:03:07.656Z,1122
2022-11-08T15:04:07.604Z,1122
2022-11-08T15:05:07.662Z,1122
2022-11-08T15:07:07.835Z,1122
2022-11-08T15:08:07.611Z,1137
2022-11-08T15:09:07.613Z,1137
2022-11-08T15:10:07.666Z,1137
2022-11-08T15:12:07.830Z,1137
2022-11-08T15:13:07.664Z,1019
2022-11-08T15:14:07.689Z,1019
2022-11-08T15:15:07.682Z,1019
2022-11-08T15:17:07.860Z,1019
2022-11-08T15:18:07.664Z,1107
2022-11-08T15:19:07.670Z,1107
2022-11-08T15:20:07.696Z,1107
2022-11-08T15:22:07.860Z,1107
2022-11-08T15:23:07.697Z,1181
2022-11-08T15:24:07.608Z,1181
2022-11-08T15:25:07.614Z,1181
2022-11-08T15:27:07.806Z,1181
2022-11-08T15:28:07.665Z,1198
2022-11-08T15:29:07.628Z,1198
2022-11-08T15:30:07.633Z,1198
2022-11-08T15:32:07.820Z,1198
2022-11-08T15:33:07.607Z,1107
2022-11-08T15:34:07.672Z,1107
2022-11-08T15:35:07.619Z,1107
2022-11-08T15:37:09.954Z,1107
2022-11-08T15:38:07.615Z,1215
2022-11-08T15:39:07.618Z,1215
2022-11-08T15:40:07.654Z,1215
2022-11-08T15:42:07.796Z,1630
2022-11-08T15:43:07.681Z,1181
2022-11-08T15:44:07.675Z,1181
2022-11-08T15:45:07.629Z,1181
2022-11-08T15:47:07.879Z,1181
2022-11-08T15:48:07.638Z,1181
2022-11-08T15:49:07.675Z,1181
2022-11-08T15:50:07.643Z,1181
2022-11-08T15:52:07.825Z,1181
2022-11-08T15:53:07.623Z,1198
2022-11-08T15:54:07.687Z,1198
2022-11-08T15:55:07.656Z,1198
2022-11-08T15:57:07.837Z,1198
2022-11-08T15:58:07.623Z,1307
2022-11-08T15:59:07.630Z,1307
2022-11-08T16:00:07.623Z,1773
2022-11-08T16:02:07.846Z,1307
2022-11-08T16:03:07.708Z,1324
2022-11-08T16:04:07.629Z,1324
2022-11-08T16:05:07.625Z,1530
2022-11-08T16:07:07.883Z,1584
2022-11-08T16:08:07.638Z,1288
2022-11-08T16:09:07.623Z,1288
2022-11-08T16:10:07.623Z,1288
2022-11-08T16:12:07.836Z,1659
2022-11-08T16:13:07.689Z,1432
2022-11-08T16:14:07.719Z,1928
2022-11-08T16:15:07.694Z,1324
2022-11-08T16:17:07.862Z,1776
2022-11-08T16:18:07.646Z,1324
2022-11-08T16:19:07.633Z,1697
2022-11-08T16:20:07.636Z,1408
2022-11-08T16:22:07.841Z,1487
2022-11-08T16:23:07.631Z,1590
2022-11-08T16:24:07.693Z,1288
2022-11-08T16:25:07.645Z,1441
2022-11-08T16:27:07.839Z,1288
2022-11-08T16:28:08.902Z,1307
2022-11-08T16:29:07.700Z,2024
2022-11-08T16:30:07.699Z,1397
2022-11-08T16:32:07.845Z,1503
2022-11-08T16:33:07.699Z,1634
2022-11-08T16:34:07.702Z,1759
2022-11-08T16:35:07.669Z,1436
2022-11-08T16:37:07.859Z,1393
2022-11-08T16:38:07.704Z,1503
2022-11-08T16:39:07.702Z,1630
2022-11-08T16:40:07.708Z,1513
2022-11-08T16:42:07.851Z,2017
2022-11-08T16:43:07.643Z,1773
2022-11-08T16:44:07.703Z,1324
2022-11-08T16:45:07.645Z,1860
2022-11-08T16:47:07.859Z,1759
2022-11-08T16:48:07.663Z,1933
2022-11-08T16:49:07.707Z,2128
2022-11-08T16:50:07.708Z,2041
2022-11-08T16:52:07.936Z,2768
2022-11-08T16:53:07.663Z,1884
2022-11-08T16:54:07.748Z,1776
2022-11-08T16:55:07.722Z,1973
2022-11-08T16:57:28.914Z,1820
2022-11-08T16:58:07.709Z,1634
2022-11-08T16:59:07.670Z,2461
2022-11-08T17:00:07.704Z,1310
2022-11-08T17:02:07.900Z,1669